Time;durP1;ratioP1;P1;durP2;ratioP2;P2;SDS_P1;SDS_P2;PMS_P1;PMS_P2;Temp;Humidity;BMP_temperature;BMP_pressure;BME280_temperature;BME280_humidity;BME280_pressure;Samples;Min_cycle;Max_cycle;Signal;HPM_P1;HPM_P2
2021/12/07 00:02:01;;;;;;;32.83;18.67;;;;;;;15.33;45.09;100552.78;5011527;28;20052;-40
2021/12/07 00:04:28;;;;;;;34.80;19.90;;;;;;;15.33;46.17;100551.94;5012740;28;20045;-40
2021/12/07 00:06:55;;;;;;;32.22;18.98;;;;;;;15.33;46.22;100557.28;5010288;28;20054;-40
2021/12/07 00:09:22;;;;;;;35.47;20.25;;;;;;;15.33;46.35;100552.78;5013226;28;20436;-40
2021/12/07 00:11:49;;;;;;;33.30;19.55;;;;;;;15.33;45.51;100551.94;5011694;28;20100;-40
2021/12/07 00:14:25;;;;;;;34.10;18.75;;;;;;;15.33;46.63;100550.13;5011464;28;20053;-40
2021/12/07 00:16:54;;;;;;;34.70;20.17;;;;;;;15.33;45.76;100557.28;5012765;28;20160;-41
2021/12/07 00:19:22;;;;;;;31.67;18.58;;;;;;;15.33;46.42;100559.97;5010634;28;20083;-40
2021/12/07 00:21:49;;;;;;;34.33;19.23;;;;;;;15.33;46.15;100562.63;5011735;28;20076;-40
2021/12/07 00:24:16;;;;;;;33.40;19.38;;;;;;;15.33;45.92;100565.31;5012123;28;20050;-40
2021/12/07 00:26:44;;;;;;;30.95;18.13;;;;;;;15.33;45.91;100565.31;5010326;28;20136;-40
2021/12/07 00:29:13;;;;;;;33.95;18.98;;;;;;;15.33;46.46;100581.31;5012632;28;20116;-40
2021/12/07 00:31:51;;;;;;;32.40;17.90;;;;;;;15.33;45.98;100565.31;5009171;28;20048;-40
2021/12/07 00:34:43;;;;;;;29.90;17.75;;;;;;;15.33;46.54;100576.81;5013325;28;20252;-40
2021/12/07 00:37:09;;;;;;;30.10;17.80;;;;;;;15.34;46.97;100589.19;5010914;28;20464;-40
2021/12/07 00:39:36;;;;;;;29.30;16.95;;;;;;;15.33;45.79;100574.16;5009468;28;20133;-41
2021/12/07 00:42:03;;;;;;;30.35;17.40;;;;;;;15.33;46.04;100586.66;5013051;28;20053;-40
2021/12/07 00:44:30;;;;;;;28.20;16.88;;;;;;;15.31;46.58;100592.13;5011676;28;20115;-40
2021/12/07 00:46:56;;;;;;;28.60;17.15;;;;;;;15.31;46.50;100608.97;5012532;28;20395;-40
2021/12/07 00:49:24;;;;;;;28.27;16.52;;;;;;;15.31;46.53;100606.31;5012504;28;20373;-40
2021/12/07 00:51:50;;;;;;;27.67;16.83;;;;;;;15.30;46.79;100593.97;5013043;28;20141;-40
2021/12/07 00:54:17;;;;;;;29.77;16.65;;;;;;;15.29;46.82;100588.78;5012786;28;20377;-40
2021/12/07 00:56:44;;;;;;;28.52;16.40;;;;;;;15.29;46.18;100589.59;5012522;28;20041;-40
2021/12/07 00:59:11;;;;;;;28.67;16.70;;;;;;;15.31;46.70;100602.81;5006909;28;20160;-40
2021/12/07 01:01:38;;;;;;;29.23;16.40;;;;;;;15.30;46.53;100607.31;5014803;28;20144;-40
2021/12/07 01:04:05;;;;;;;26.52;15.52;;;;;;;15.30;46.14;100603.81;5007400;28;20049;-41
2021/12/07 01:24:38;;;;;;;24.85;14.88;;;;;;;15.29;46.27;100612.81;4987876;28;20085;-41
2021/12/07 01:26:09;;;;;;;23.85;14.38;;;;;;;15.27;46.54;100633.44;5010459;28;20439;-40
2021/12/07 01:28:41;;;;;;;22.70;14.13;;;;;;;15.27;46.98;100639.63;5010270;28;20141;-41
2021/12/07 01:31:21;;;;;;;23.63;13.50;;;;;;;15.27;46.39;100644.13;5007868;28;20161;-40
2021/12/07 01:34:09;;;;;;;23.52;12.63;;;;;;;15.26;46.24;100651.28;5009953;28;20069;-40
2021/12/07 01:37:02;;;;;;;22.45;13.60;;;;;;;15.26;46.46;100651.28;5005639;28;20056;-40
2021/12/07 01:47:38;;;;;;;19.60;12.52;;;;;;;15.25;46.63;100657.63;5009846;28;20398;-40
2021/12/07 02:00:33;;;;;;;19.00;11.57;;;;;;;15.27;47.41;100671.66;5009585;28;20037;-40
2021/12/07 02:03:00;;;;;;;18.52;12.13;;;;;;;15.27;47.92;100666.31;5010380;28;20054;-40
2021/12/07 02:05:27;;;;;;;19.10;11.55;;;;;;;15.27;48.00;100681.50;5007463;28;20049;-40
2021/12/07 02:07:54;;;;;;;18.55;11.07;;;;;;;15.28;47.59;100691.22;5011570;28;20070;-40
2021/12/07 02:10:24;;;;;;;20.27;11.70;;;;;;;15.27;47.33;100697.53;5008440;28;20045;-40
2021/12/07 02:12:55;;;;;;;18.88;11.13;;;;;;;15.27;47.93;100701.03;5014901;28;20073;-40
2021/12/07 02:15:24;;;;;;;18.27;10.77;;;;;;;15.28;47.16;100704.56;5007523;28;20056;-40
2021/12/07 02:17:52;;;;;;;18.05;11.82;;;;;;;15.27;48.23;100702.88;5009410;28;20133;-42
2021/12/07 02:20:21;;;;;;;18.92;11.27;;;;;;;15.29;48.52;100714.28;5006992;28;20073;-41
2021/12/07 02:22:48;;;;;;;16.92;10.43;;;;;;;15.28;47.60;100715.25;5010860;28;20050;-40
2021/12/07 02:25:17;;;;;;;19.02;11.82;;;;;;;15.29;48.15;100717.78;5008729;28;20079;-40
2021/12/07 02:27:46;;;;;;;18.00;10.07;;;;;;;15.29;48.46;100711.59;5013131;28;20053;-41
2021/12/07 02:30:17;;;;;;;18.92;10.43;;;;;;;15.28;48.64;100718.75;5010509;28;20156;-40
2021/12/07 02:32:43;;;;;;;17.15;10.55;;;;;;;15.30;47.70;100723.97;5009684;28;20136;-40
2021/12/07 02:35:13;;;;;;;21.08;11.23;;;;;;;15.29;48.50;100724.94;5010726;28;20121;-40
2021/12/07 02:37:39;;;;;;;18.30;10.20;;;;;;;15.29;48.03;100733.78;5006315;28;20076;-42
2021/12/07 02:40:08;;;;;;;15.27;9.15;;;;;;;15.30;48.86;100745.31;5011815;28;20050;-41
2021/12/07 02:42:35;;;;;;;15.32;9.52;;;;;;;15.30;48.63;100745.31;5010661;28;20589;-41
2021/12/07 02:45:04;;;;;;;15.30;9.27;;;;;;;15.30;48.07;100762.19;5009852;28;20593;-40
2021/12/07 02:47:35;;;;;;;15.68;9.07;;;;;;;15.29;49.03;100763.16;5006276;28;20140;-42
2021/12/07 02:50:06;;;;;;;15.88;9.35;;;;;;;15.30;48.91;100762.19;5012845;28;20137;-41
2021/12/07 02:52:33;;;;;;;14.85;8.50;;;;;;;15.29;48.45;100760.50;5010562;28;20054;-41
2021/12/07 02:55:00;;;;;;;14.27;8.25;;;;;;;15.31;49.27;100755.00;5009070;28;20053;-40
2021/12/07 02:57:26;;;;;;;16.27;8.82;;;;;;;15.30;48.29;100758.66;5007340;28;20060;-40
2021/12/07 03:00:09;;;;;;;13.75;7.80;;;;;;;15.30;48.30;100761.34;5012887;28;20118;-41
2021/12/07 03:02:42;;;;;;;13.38;7.95;;;;;;;15.29;48.32;100757.81;5009604;28;20181;-40
2021/12/07 03:05:40;;;;;;;12.68;7.60;;;;;;;15.29;48.59;100778.34;5010671;28;20077;-40
2021/12/07 03:27:36;;;;;;;13.48;7.38;;;;;;;15.26;48.63;100787.47;5009342;28;20341;-41
2021/12/07 03:30:07;;;;;;;12.02;7.30;;;;;;;15.26;48.66;100795.47;5007225;28;20145;-42
2021/12/07 03:32:34;;;;;;;11.57;6.15;;;;;;;15.26;48.75;100803.50;5005318;28;20056;-41
2021/12/07 03:35:00;;;;;;;11.68;7.13;;;;;;;15.25;48.45;100808.97;5004055;28;20068;-42
2021/12/07 03:37:27;;;;;;;11.35;6.78;;;;;;;15.25;49.43;100817.81;5005072;28;20050;-42
2021/12/07 03:39:53;;;;;;;10.75;6.30;;;;;;;15.25;48.33;100831.19;5005242;28;20183;-41
2021/12/07 03:42:20;;;;;;;12.63;6.97;;;;;;;15.25;48.51;100831.19;5013739;28;20078;-41
2021/12/07 03:44:46;;;;;;;9.90;5.43;;;;;;;15.24;48.51;100824.16;5009357;28;20157;-40
2021/12/07 03:47:13;;;;;;;9.90;6.30;;;;;;;15.24;49.00;100821.47;5009414;28;20141;-41
2021/12/07 03:49:40;;;;;;;10.32;5.97;;;;;;;15.25;49.11;100812.50;5007747;28;20057;-40
2021/12/07 03:52:06;;;;;;;9.35;5.63;;;;;;;15.24;49.24;100816.16;5008656;28;20373;-40
2021/12/07 03:54:33;;;;;;;9.10;5.40;;;;;;;15.25;49.01;100811.66;5012557;28;20084;-40
2021/12/07 03:57:00;;;;;;;10.48;5.80;;;;;;;15.24;49.23;100821.47;5012115;28;20220;-40
2021/12/07 03:59:26;;;;;;;9.10;5.57;;;;;;;15.23;49.19;100810.91;5012791;28;20145;-40
2021/12/07 04:01:53;;;;;;;9.20;5.20;;;;;;;15.24;49.25;100821.47;5016199;28;20133;-43
2021/12/07 04:04:19;;;;;;;10.73;5.95;;;;;;;15.24;48.82;100816.16;5014298;28;21324;-43
2021/12/07 04:06:46;;;;;;;10.15;5.50;;;;;;;15.24;49.31;100823.31;5010638;28;20057;-40
2021/12/07 04:09:12;;;;;;;10.18;5.43;;;;;;;15.22;49.28;100826.09;5015949;28;20232;-41
2021/12/07 04:11:39;;;;;;;14.40;5.97;;;;;;;15.23;48.46;100832.28;5013976;28;20046;-41
2021/12/07 04:14:06;;;;;;;9.85;5.18;;;;;;;15.22;48.47;100834.13;5010457;28;20481;-40
2021/12/07 04:16:34;;;;;;;9.20;4.93;;;;;;;15.21;49.17;100834.25;5013668;28;20053;-40
2021/12/07 04:19:01;;;;;;;7.53;4.63;;;;;;;15.21;48.97;100831.59;5016199;28;20149;-40
2021/12/07 04:21:28;;;;;;;8.52;4.90;;;;;;;15.21;48.63;100848.44;5010612;28;20056;-40
2021/12/07 04:23:54;;;;;;;8.13;4.68;;;;;;;15.24;48.57;100850.84;5011278;28;20137;-41
2021/12/07 04:26:21;;;;;;;10.15;5.63;;;;;;;15.31;48.77;100845.81;5015565;28;20137;-40
2021/12/07 04:28:48;;;;;;;7.57;4.40;;;;;;;15.41;48.48;100843.19;5008521;28;20080;-41
2021/12/07 04:31:15;;;;;;;8.18;4.63;;;;;;;15.49;48.36;100840.66;5010022;28;20049;-41
2021/12/07 04:33:41;;;;;;;7.18;4.25;;;;;;;15.58;48.85;100834.50;5008935;28;20050;-43
2021/12/07 04:36:09;;;;;;;7.00;4.15;;;;;;;15.69;48.60;100828.22;5010453;28;20080;-41
2021/12/07 04:38:37;;;;;;;8.85;4.20;;;;;;;15.79;48.45;100847.78;5016796;28;20353;-41
2021/12/07 04:41:04;;;;;;;7.13;4.05;;;;;;;15.89;48.04;100835.28;5012118;28;20062;-41
2021/12/07 04:43:31;;;;;;;7.55;3.90;;;;;;;16.01;47.68;100847.50;5013732;28;20053;-41
2021/12/07 04:46:08;;;;;;;6.85;3.92;;;;;;;16.10;48.10;100867.22;5013314;28;20054;-43
2021/12/07 04:49:31;;;;;;;6.93;3.65;;;;;;;16.21;47.32;100859.06;5016039;28;20050;-41
2021/12/07 04:57:37;;;;;;;6.28;3.95;;;;;;;16.40;47.14;100863.56;5010125;28;20173;-41
2021/12/07 04:59:52;;;;;;;8.00;3.53;;;;;;;16.55;46.43;100869.28;5010048;28;20059;-41
2021/12/07 05:02:23;;;;;;;6.90;3.30;;;;;;;16.62;46.23;100877.59;5014211;28;20046;-41
2021/12/07 05:04:50;;;;;;;6.53;3.45;;;;;;;16.66;46.82;100865.63;5009551;28;20056;-41
2021/12/07 05:07:33;;;;;;;5.97;3.50;;;;;;;16.70;46.81;100881.25;5010871;28;20062;-42
2021/12/07 05:15:04;;;;;;;8.77;4.00;;;;;;;16.78;46.60;100872.53;5015012;28;20223;-41
2021/12/07 05:17:56;;;;;;;5.63;3.33;;;;;;;16.79;46.63;100882.22;5011836;28;20619;-41
2021/12/07 05:34:50;;;;;;;7.50;3.28;;;;;;;16.68;46.19;100923.38;5027242;28;20041;-41
2021/12/07 05:40:08;;;;;;;5.40;3.38;;;;;;;16.61;46.38;100930.28;5006251;28;20050;-41
2021/12/07 05:42:36;;;;;;;6.30;3.00;;;;;;;16.57;46.66;100934.22;5008311;28;20041;-42
2021/12/07 05:45:05;;;;;;;5.82;3.60;;;;;;;16.54;47.03;100929.16;5003520;28;20460;-41
2021/12/07 05:47:32;;;;;;;5.18;3.20;;;;;;;16.51;46.35;100938.28;5009968;28;20406;-42
2021/12/07 05:49:58;;;;;;;5.35;2.90;;;;;;;16.49;46.15;100936.75;5006742;28;20046;-42
2021/12/07 05:52:25;;;;;;;4.13;2.58;;;;;;;16.46;47.01;100948.56;5007480;28;20426;-41
2021/12/07 05:54:52;;;;;;;5.97;3.08;;;;;;;16.43;46.53;100948.84;5007707;28;20053;-41
2021/12/07 05:57:19;;;;;;;6.40;2.63;;;;;;;16.41;46.84;100955.34;5010544;28;20056;-42
2021/12/07 05:59:45;;;;;;;6.20;3.03;;;;;;;16.38;46.50;100959.13;5007326;28;20046;-41
2021/12/07 06:02:12;;;;;;;4.60;2.75;;;;;;;16.37;47.05;100964.63;5012039;28;20077;-41
2021/12/07 06:04:39;;;;;;;6.32;3.00;;;;;;;16.34;46.50;100952.38;5007097;28;20050;-41
2021/12/07 06:07:07;;;;;;;4.80;2.47;;;;;;;16.32;46.79;100956.16;5010452;28;20072;-41
2021/12/07 06:09:34;;;;;;;4.85;2.67;;;;;;;16.29;46.92;100947.44;5007905;28;20046;-41
2021/12/07 06:12:01;;;;;;;6.15;2.97;;;;;;;16.27;47.36;100935.19;5014693;28;20430;-41
2021/12/07 06:14:34;;;;;;;4.93;2.53;;;;;;;16.24;46.88;100946.16;5005314;28;20153;-41
2021/12/07 06:17:02;;;;;;;4.45;2.83;;;;;;;16.22;47.29;100935.63;5009891;28;20134;-41
2021/12/07 06:19:28;;;;;;;5.43;2.38;;;;;;;16.20;46.68;100929.56;5008791;28;20053;-40
2021/12/07 06:21:55;;;;;;;3.88;2.20;;;;;;;16.18;46.71;100931.53;5012710;28;20215;-41
2021/12/07 06:24:21;;;;;;;4.97;2.85;;;;;;;16.15;47.36;100929.13;5007881;28;20058;-40
2021/12/07 06:26:48;;;;;;;5.68;2.83;;;;;;;16.14;47.55;100929.28;5010001;28;20046;-40
2021/12/07 06:29:15;;;;;;;5.03;2.40;;;;;;;16.10;47.40;100936.72;5008675;28;20065;-40
2021/12/07 06:31:42;;;;;;;4.78;2.50;;;;;;;16.08;47.66;100936.03;5008553;28;20072;-40
2021/12/07 06:34:10;;;;;;;5.03;2.40;;;;;;;16.06;47.29;100932.66;5010046;28;20430;-40
2021/12/07 06:36:38;;;;;;;3.58;2.00;;;;;;;16.03;47.58;100935.59;5010756;28;20125;-41
2021/12/07 06:39:06;;;;;;;4.30;2.15;;;;;;;16.00;47.38;100930.50;5011891;28;20240;-41
2021/12/07 06:41:33;;;;;;;3.85;2.35;;;;;;;15.97;47.50;100945.00;5006070;28;20495;-41
2021/12/07 06:44:01;;;;;;;4.72;2.25;;;;;;;15.95;47.05;100946.97;5008498;28;20046;-40
2021/12/07 06:46:27;;;;;;;4.65;2.28;;;;;;;15.94;46.98;100952.47;5006651;28;20050;-40
2021/12/07 06:48:54;;;;;;;4.45;2.30;;;;;;;15.92;47.46;100955.28;5012140;28;20116;-40
2021/12/07 06:51:21;;;;;;;7.20;2.78;;;;;;;15.90;47.29;100953.72;5009061;28;20133;-40
2021/12/07 06:53:48;;;;;;;4.22;1.95;;;;;;;15.88;47.80;100953.00;5009042;28;20168;-41
2021/12/07 06:56:15;;;;;;;4.07;2.00;;;;;;;15.86;46.99;100957.66;5005489;28;20136;-42
2021/12/07 06:58:42;;;;;;;4.45;2.40;;;;;;;15.85;47.23;100964.81;5009163;28;20060;-42
2021/12/07 07:01:11;;;;;;;4.70;2.42;;;;;;;15.83;47.06;100963.25;5008724;28;20050;-40
2021/12/07 07:03:39;;;;;;;4.53;2.22;;;;;;;15.83;48.01;100957.91;5009781;28;20495;-41
2021/12/07 07:06:06;;;;;;;4.68;2.15;;;;;;;15.79;47.38;100960.84;5007884;28;20100;-40
2021/12/07 07:08:33;;;;;;;3.88;2.00;;;;;;;15.78;47.20;100967.19;5010957;28;20045;-40
2021/12/07 07:11:00;;;;;;;5.72;1.92;;;;;;;15.76;47.82;100955.81;5008474;28;20061;-40
2021/12/07 07:13:26;;;;;;;4.07;2.17;;;;;;;15.74;46.88;100963.09;5008795;28;20042;-41
2021/12/07 07:15:53;;;;;;;5.18;2.20;;;;;;;15.72;47.26;100965.06;5008876;28;20050;-40
2021/12/07 07:18:19;;;;;;;4.15;2.28;;;;;;;15.70;47.77;100968.84;5005906;28;20434;-41
2021/12/07 07:20:46;;;;;;;4.25;2.03;;;;;;;15.67;47.43;100964.59;5007504;28;20433;-40
2021/12/07 07:23:13;;;;;;;4.47;2.10;;;;;;;15.67;47.70;100961.94;5008977;28;20050;-40
2021/12/07 07:25:39;;;;;;;5.57;1.92;;;;;;;15.64;47.30;100972.88;5008568;28;20136;-40
2021/12/07 07:28:06;;;;;;;4.45;2.28;;;;;;;15.64;47.89;100970.22;5011823;28;20054;-40
2021/12/07 07:30:32;;;;;;;4.43;1.90;;;;;;;15.63;48.28;100981.03;5012111;28;20046;-41
2021/12/07 07:32:59;;;;;;;6.07;1.73;;;;;;;15.60;47.12;100975.94;5009263;28;20042;-41
2021/12/07 07:35:26;;;;;;;3.42;1.80;;;;;;;15.60;48.12;100982.16;5012147;28;20061;-41
2021/12/07 07:37:53;;;;;;;4.20;2.00;;;;;;;15.58;47.31;100977.91;5009776;28;20077;-40
2021/12/07 07:40:21;;;;;;;2.78;1.60;;;;;;;15.62;48.04;100980.19;5008349;28;20042;-41
2021/12/07 07:42:49;;;;;;;3.08;1.77;;;;;;;15.67;47.47;100975.28;5010449;28;20049;-41
2021/12/07 07:45:16;;;;;;;3.78;1.80;;;;;;;15.73;48.17;100957.91;5014499;28;20426;-43
2021/12/07 07:47:43;;;;;;;3.28;1.65;;;;;;;15.80;48.13;100953.72;5009912;28;20152;-41
2021/12/07 07:50:12;;;;;;;4.35;2.08;;;;;;;15.87;48.13;100952.16;5011791;28;20513;-42
2021/12/07 07:52:40;;;;;;;4.25;2.15;;;;;;;15.97;47.38;100944.16;5009291;28;20367;-42
2021/12/07 07:55:07;;;;;;;4.82;2.33;;;;;;;16.07;47.78;100942.34;5012890;28;20509;-39
2021/12/07 07:57:34;;;;;;;3.65;2.25;;;;;;;16.17;46.95;100953.91;5006670;28;20137;-42
2021/12/07 08:00:04;;;;;;;6.05;2.30;;;;;;;16.26;47.03;100952.22;5011609;28;20069;-43
2021/12/07 08:02:30;;;;;;;4.30;2.75;;;;;;;16.35;47.34;100953.22;5006646;28;20053;-42
2021/12/07 08:04:57;;;;;;;6.43;3.33;;;;;;;16.44;47.19;100955.03;5007692;28;20050;-43
2021/12/07 08:07:23;;;;;;;5.90;3.30;;;;;;;16.52;46.75;100957.84;5011174;28;20185;-42
2021/12/07 08:09:50;;;;;;;7.50;3.53;;;;;;;16.59;46.75;100950.97;5015329;28;20144;-42
2021/12/07 08:12:17;;;;;;;7.68;4.15;;;;;;;16.67;46.81;100960.97;5010933;28;20141;-42
2021/12/07 08:14:43;;;;;;;7.03;4.00;;;;;;;16.72;46.65;100964.94;5004228;28;20085;-42
2021/12/07 08:17:12;;;;;;;9.15;5.30;;;;;;;16.78;46.68;100964.38;5011280;28;20066;-42
2021/12/07 08:19:39;;;;;;;12.57;5.43;;;;;;;16.84;46.10;100962.94;5006797;28;20060;-42
2021/12/07 08:22:05;;;;;;;11.65;5.63;;;;;;;16.88;46.67;100955.47;5005330;28;20130;-43
2021/12/07 08:24:32;;;;;;;9.95;5.78;;;;;;;16.93;45.85;100956.75;5007681;28;20864;-44
2021/12/07 08:26:59;;;;;;;12.20;5.93;;;;;;;16.99;45.73;100960.69;5008626;28;20129;-43
2021/12/07 08:29:45;;;;;;;10.77;5.40;;;;;;;17.02;45.50;100955.88;5009753;28;20045;-42
2021/12/07 08:32:12;;;;;;;11.52;6.38;;;;;;;17.07;46.27;100963.47;5006488;28;20076;-42
2021/12/07 08:34:38;;;;;;;13.10;6.85;;;;;;;17.12;46.00;100960.34;5009217;28;20133;-42
2021/12/07 08:37:05;;;;;;;12.27;7.03;;;;;;;17.15;45.68;100952.88;5006503;28;20183;-43
2021/12/07 08:39:34;;;;;;;14.82;8.05;;;;;;;17.19;45.84;100958.78;5012095;28;20132;-42
2021/12/07 08:42:03;;;;;;;14.98;6.88;;;;;;;17.23;45.95;100965.56;5002544;28;20060;-42
2021/12/07 08:44:32;;;;;;;13.40;7.13;;;;;;;17.27;45.08;100969.63;5009070;28;20058;-42
2021/12/07 08:47:00;;;;;;;11.57;6.43;;;;;;;17.29;45.02;100970.34;5006052;28;20050;-42
2021/12/07 08:49:26;;;;;;;12.65;6.63;;;;;;;17.33;45.50;100971.75;5007018;28;20134;-43
2021/12/07 08:51:53;;;;;;;12.30;6.32;;;;;;;17.36;45.25;100967.91;5006443;28;20137;-42
2021/12/07 08:59:58;;;;;;;12.55;6.72;;;;;;;17.46;45.22;100972.25;5004323;28;20104;-40
2021/12/07 09:02:26;;;;;;;11.07;6.53;;;;;;;17.47;45.12;100967.72;5010753;28;20337;-41
2021/12/07 09:04:54;;;;;;;14.02;7.53;;;;;;;17.51;45.11;100961.94;5001017;28;20050;-42
2021/12/07 09:07:22;;;;;;;12.55;6.47;;;;;;;17.55;45.13;100962.47;5006735;28;20073;-40
2021/12/07 09:09:49;;;;;;;17.17;7.55;;;;;;;17.59;45.04;100973.75;5003517;28;20074;-40
2021/12/07 09:12:17;;;;;;;16.25;8.65;;;;;;;17.63;45.10;100975.16;5004524;28;20456;-41
2021/12/07 09:14:45;;;;;;;13.48;7.60;;;;;;;17.65;45.03;100979.38;5003643;28;20446;-40
2021/12/07 09:17:13;;;;;;;18.15;8.65;;;;;;;17.67;44.63;100966.66;5003320;28;20129;-40
2021/12/07 09:19:40;;;;;;;15.27;7.78;;;;;;;17.70;45.06;100958.31;5006088;28;20058;-41
2021/12/07 09:22:06;;;;;;;16.25;8.35;;;;;;;17.74;44.62;100958.88;5003602;28;20137;-40
2021/12/07 09:24:53;;;;;;;15.93;8.45;;;;;;;17.76;44.43;100971.16;5005556;28;20046;-42
2021/12/07 09:27:20;;;;;;;15.18;7.88;;;;;;;17.80;44.57;100974.38;5005791;28;20393;-42
2021/12/07 09:29:47;;;;;;;16.73;8.07;;;;;;;17.83;44.82;100976.78;5005602;28;20128;-41
2021/12/07 09:32:13;;;;;;;19.15;8.98;;;;;;;17.85;44.48;100972.13;5005523;28;20060;-42
2021/12/07 09:34:40;;;;;;;15.65;8.07;;;;;;;17.88;44.42;100974.47;5012090;28;20053;-40
2021/12/07 09:37:07;;;;;;;16.77;8.38;;;;;;;17.91;44.79;100976.88;5006573;28;20056;-40
2021/12/07 09:39:34;;;;;;;16.55;8.40;;;;;;;17.95;44.52;100970.22;5001958;28;21157;-40
2021/12/07 09:42:00;;;;;;;15.80;8.43;;;;;;;17.99;44.51;100976.13;5006312;28;20072;-41
2021/12/07 09:44:27;;;;;;;16.63;8.63;;;;;;;18.03;44.73;100977.50;5001889;28;20404;-40
2021/12/07 09:46:54;;;;;;;19.17;9.52;;;;;;;18.08;45.21;100969.84;5006566;28;20072;-44
2021/12/07 09:49:20;;;;;;;15.65;7.93;;;;;;;18.13;45.12;100967.56;5005070;28;20137;-40
2021/12/07 09:51:47;;;;;;;17.05;9.15;;;;;;;18.18;44.75;100976.00;5005928;28;20486;-41
2021/12/07 09:54:14;;;;;;;18.98;9.40;;;;;;;18.23;45.24;100976.38;5003564;28;20144;-41
2021/12/07 09:56:41;;;;;;;17.70;8.70;;;;;;;18.29;44.91;100969.59;5000026;28;20046;-40
2021/12/07 09:59:10;;;;;;;17.10;7.85;;;;;;;18.34;44.68;100979.84;5002441;28;20126;-40
2021/12/07 10:01:41;;;;;;;17.92;8.82;;;;;;;18.39;44.43;100981.06;5003453;28;20164;-41
2021/12/07 10:04:09;;;;;;;15.57;8.10;;;;;;;18.44;44.45;100985.97;5003449;28;20054;-40
2021/12/07 10:06:36;;;;;;;15.93;8.25;;;;;;;18.47;44.32;100975.78;5004144;28;20042;-40
2021/12/07 10:09:04;;;;;;;17.40;8.50;;;;;;;18.52;44.26;100974.47;5002766;28;20076;-40
2021/12/07 10:11:31;;;;;;;16.27;7.85;;;;;;;18.54;44.37;100970.66;5006096;28;20041;-40
2021/12/07 10:13:58;;;;;;;14.57;7.97;;;;;;;18.56;44.53;100960.59;5004165;28;20079;-40
2021/12/07 10:16:25;;;;;;;19.75;8.27;;;;;;;18.58;44.42;100966.66;5006352;28;20141;-40
2021/12/07 10:18:56;;;;;;;15.48;7.72;;;;;;;18.59;44.12;100962.97;5004485;28;20049;-40
2021/12/07 10:21:27;;;;;;;15.30;6.85;;;;;;;18.59;44.48;100965.66;5007138;28;20145;-40
2021/12/07 10:24:00;;;;;;;14.43;7.78;;;;;;;18.61;44.08;100957.44;5002751;28;20577;-40
2021/12/07 10:26:30;;;;;;;24.63;11.30;;;;;;;18.61;44.19;100955.59;5004360;28;20418;-40
2021/12/07 10:28:56;;;;;;;20.65;9.32;;;;;;;18.59;44.12;100957.59;5006287;28;20442;-40
2021/12/07 10:31:37;;;;;;;17.73;9.00;;;;;;;18.58;43.97;100955.09;5001350;28;20046;-40
2021/12/07 10:34:11;;;;;;;22.55;11.80;;;;;;;18.57;43.73;100948.84;5004620;28;20422;-40
2021/12/07 10:36:45;;;;;;;21.73;11.18;;;;;;;18.56;44.01;100940.97;5006494;28;20381;-40
2021/12/07 10:39:20;;;;;;;25.85;13.00;;;;;;;18.55;43.87;100939.28;5004113;28;20049;-40
2021/12/07 10:41:58;;;;;;;23.17;11.40;;;;;;;18.53;43.59;100925.16;5003026;28;20137;-40
2021/12/07 10:44:44;;;;;;;22.55;10.23;;;;;;;18.50;43.26;100920.97;5006130;28;20072;-40
2021/12/07 10:47:14;;;;;;;25.17;11.73;;;;;;;18.48;43.44;100922.94;5000679;28;20457;-40
2021/12/07 10:49:43;;;;;;;23.65;11.23;;;;;;;18.46;43.35;100912.38;4999460;28;20050;-40
2021/12/07 10:52:33;;;;;;;20.23;9.85;;;;;;;18.44;43.29;100905.47;5001702;28;20144;-40
2021/12/07 10:55:08;;;;;;;24.40;11.65;;;;;;;18.43;43.28;100895.75;5000056;28;20050;-40
2021/12/07 10:57:36;;;;;;;29.13;13.68;;;;;;;18.40;43.47;100890.66;5003793;28;20073;-40
2021/12/07 11:00:09;;;;;;;25.55;12.25;;;;;;;18.38;43.72;100887.31;5006072;28;20200;-40
2021/12/07 11:02:37;;;;;;;27.27;12.47;;;;;;;18.36;43.31;100897.34;5005290;28;20180;-40
2021/12/07 11:05:15;;;;;;;27.08;13.05;;;;;;;18.34;43.77;100878.72;5007930;28;20586;-41
2021/12/07 11:07:42;;;;;;;26.85;13.02;;;;;;;18.35;43.59;100879.56;5006297;28;20089;-40
2021/12/07 11:10:15;;;;;;;28.85;14.52;;;;;;;18.33;44.11;100881.53;5004127;28;20129;-41
2021/12/07 11:12:59;;;;;;;31.08;14.43;;;;;;;18.33;44.33;100876.19;5005703;28;20081;-41
2021/12/07 11:15:29;;;;;;;32.13;15.48;;;;;;;18.32;43.99;100874.50;5006518;28;20054;-40
2021/12/07 11:18:00;;;;;;;30.60;15.30;;;;;;;18.30;44.24;100872.00;5000543;28;20122;-40
2021/12/07 11:20:29;;;;;;;32.35;14.82;;;;;;;18.29;43.76;100875.69;5006099;28;20168;-40
2021/12/07 11:23:20;;;;;;;34.10;16.88;;;;;;;18.29;43.79;100873.00;5003576;28;20078;-40
2021/12/07 11:31:46;;;;;;;32.83;16.02;;;;;;;18.24;43.95;100868.06;5003167;28;20046;-40
2021/12/07 11:34:17;;;;;;;33.35;16.00;;;;;;;18.23;44.38;100861.03;5003155;28;20052;-41
2021/12/07 11:36:54;;;;;;;30.33;16.02;;;;;;;18.22;43.53;100864.72;5005889;28;20046;-40
2021/12/07 11:39:32;;;;;;;32.63;15.82;;;;;;;18.21;43.88;100854.97;4998298;28;20533;-40
2021/12/07 11:42:03;;;;;;;33.05;16.73;;;;;;;18.22;44.41;100853.13;4999156;28;20052;-40
2021/12/07 11:44:32;;;;;;;34.33;17.25;;;;;;;18.20;44.22;100849.75;4999049;28;20078;-40
2021/12/07 11:47:00;;;;;;;36.95;17.25;;;;;;;18.19;44.19;100853.44;5000119;28;20064;-40
2021/12/07 11:49:30;;;;;;;39.70;18.95;;;;;;;18.18;44.40;100835.66;5004134;28;20098;-40
2021/12/07 11:51:59;;;;;;;35.92;19.13;;;;;;;18.17;44.43;100837.50;5005226;28;20399;-40
2021/12/07 11:54:29;;;;;;;34.13;17.70;;;;;;;18.16;44.40;100840.31;5010447;28;20125;-40
2021/12/07 11:56:57;;;;;;;33.97;16.67;;;;;;;18.14;44.03;100819.03;5002584;28;20064;-40
2021/12/07 11:59:24;;;;;;;33.97;15.63;;;;;;;18.13;44.41;100811.13;5003693;28;20493;-40
2021/12/07 12:01:51;;;;;;;48.28;24.75;;;;;;;18.13;44.19;100824.53;5006610;28;20061;-38
2021/12/07 12:04:19;;;;;;;68.85;35.40;;;;;;;18.13;44.80;100817.34;5003083;28;20055;-40
2021/12/07 12:06:48;;;;;;;80.85;32.10;;;;;;;18.13;45.13;100803.94;5005984;28;20060;-39
2021/12/07 12:09:16;;;;;;;69.47;30.92;;;;;;;18.15;45.40;100793.03;4998132;28;20164;-39
2021/12/07 12:12:20;;;;;;;58.60;28.60;;;;;;;18.16;45.39;100786.69;5006374;28;20133;-39
2021/12/07 12:15:02;;;;;;;63.97;31.10;;;;;;;18.21;45.06;100782.56;4999613;28;20054;-39
2021/12/07 12:18:02;;;;;;;64.15;31.25;;;;;;;18.25;45.30;100773.19;5001359;28;20413;-39
2021/12/07 12:20:55;;;;;;;69.82;32.22;;;;;;;18.32;45.32;100772.53;5006772;28;20670;-39
2021/12/07 12:23:53;;;;;;;60.30;29.92;;;;;;;18.37;45.01;100764.84;5010923;28;20051;-39
2021/12/07 12:26:23;;;;;;;60.22;28.13;;;;;;;18.42;44.61;100743.78;5009208;28;20136;-41
2021/12/07 12:28:51;;;;;;;71.25;34.25;;;;;;;18.46;44.51;100731.72;5005413;28;20249;-47
2021/12/07 12:31:19;;;;;;;61.38;31.90;;;;;;;18.51;45.15;100734.75;5008042;28;20050;-41
2021/12/07 12:33:55;;;;;;;78.75;36.97;;;;;;;18.58;44.83;100730.44;5006331;28;20060;-41
2021/12/07 12:36:25;;;;;;;82.88;37.63;;;;;;;18.64;45.47;100735.16;4996219;28;20487;-42
2021/12/07 12:39:10;;;;;;;74.22;37.30;;;;;;;18.71;45.30;100730.03;5000723;28;20046;-40
2021/12/07 12:41:36;;;;;;;66.63;34.38;;;;;;;18.78;44.75;100730.25;5001363;28;20086;-40
2021/12/07 12:44:09;;;;;;;73.13;35.33;;;;;;;18.83;45.22;100727.91;4999641;28;20357;-40
2021/12/07 12:46:37;;;;;;;67.82;33.95;;;;;;;18.88;44.85;100722.88;4998059;28;20137;-40
2021/12/07 12:49:08;;;;;;;67.35;33.30;;;;;;;18.94;44.91;100724.94;5000750;28;20457;-41
2021/12/07 12:51:46;;;;;;;66.82;34.80;;;;;;;18.99;44.92;100717.22;5003144;28;20058;-41
2021/12/07 12:54:14;;;;;;;72.32;34.20;;;;;;;19.01;44.57;100709.00;5002125;28;20060;-40
2021/12/07 12:56:41;;;;;;;63.30;32.22;;;;;;;19.01;44.90;100700.94;5000937;28;20467;-40
2021/12/07 12:59:10;;;;;;;60.15;32.38;;;;;;;19.01;44.77;100692.88;4999484;28;20049;-41
2021/12/07 13:01:41;;;;;;;58.83;32.42;;;;;;;19.02;45.53;100691.88;4999701;28;20095;-40
2021/12/07 13:04:29;;;;;;;53.08;28.95;;;;;;;19.03;45.12;100680.97;4997461;28;20045;-41